sensor_id;sensor_type;location;lat;lon;timestamp;pressure;altitude;pressure_sealevel;temperature;humidity
6565;BME280;3316;44.118;27.258;2023-02-13T00:01:16;103284.94;;;0.34;100.00
6565;BME280;3316;44.118;27.258;2023-02-13T00:03:42;103271.81;;;0.19;100.00
6565;BME280;3316;44.118;27.258;2023-02-13T00:06:07;103282.59;;;0.25;100.00
6565;BME280;3316;44.118;27.258;2023-02-13T00:08:33;103268.19;;;0.06;100.00
6565;BME280;3316;44.118;27.258;2023-02-13T00:10:59;103292.38;;;0.06;100.00
6565;BME280;3316;44.118;27.258;2023-02-13T00:13:25;103279.44;;;-0.06;100.00
6565;BME280;3316;44.118;27.258;2023-02-13T00:15:57;103286.63;;;-0.02;100.00
6565;BME280;3316;44.118;27.258;2023-02-13T00:18:24;103278.53;;;-0.18;100.00
6565;BME280;3316;44.118;27.258;2023-02-13T00:21:04;103280.13;;;-0.20;100.00
6565;BME280;3316;44.118;27.258;2023-02-13T00:23:31;103301.03;;;-0.05;100.00
6565;BME280;3316;44.118;27.258;2023-02-13T00:25:58;103285.88;;;-0.01;100.00
6565;BME280;3316;44.118;27.258;2023-02-13T00:28:24;103298.56;;;-0.04;100.00
6565;BME280;3316;44.118;27.258;2023-02-13T00:30:49;103281.44;;;-0.13;100.00
6565;BME280;3316;44.118;27.258;2023-02-13T00:33:15;103284.59;;;-0.17;100.00
6565;BME280;3316;44.118;27.258;2023-02-13T00:35:40;103295.41;;;-0.11;100.00
6565;BME280;3316;44.118;27.258;2023-02-13T00:38:06;103279.97;;;-0.10;100.00
6565;BME280;3316;44.118;27.258;2023-02-13T00:40:31;103270.09;;;-0.15;100.00
6565;BME280;3316;44.118;27.258;2023-02-13T00:42:57;103281.59;;;0.00;100.00
6565;BME280;3316;44.118;27.258;2023-02-13T00:45:22;103224.88;;;-0.32;100.00
6565;BME280;3316;44.118;27.258;2023-02-13T00:47:48;103261.31;;;-0.06;100.00
6565;BME280;3316;44.118;27.258;2023-02-13T00:50:13;103278.09;;;0.11;100.00
6565;BME280;3316;44.118;27.258;2023-02-13T00:52:38;103285.31;;;0.15;100.00
6565;BME280;3316;44.118;27.258;2023-02-13T00:55:04;103279.22;;;0.15;100.00
6565;BME280;3316;44.118;27.258;2023-02-13T00:57:30;103263.91;;;0.06;100.00
6565;BME280;3316;44.118;27.258;2023-02-13T00:59:56;103239.38;;;-0.11;100.00
6565;BME280;3316;44.118;27.258;2023-02-13T01:02:21;103282.03;;;0.18;100.00
6565;BME280;3316;44.118;27.258;2023-02-13T01:04:47;103287.34;;;0.19;100.00
6565;BME280;3316;44.118;27.258;2023-02-13T01:07:12;103276.41;;;0.23;100.00
6565;BME280;3316;44.118;27.258;2023-02-13T01:09:38;103292.81;;;0.35;100.00
6565;BME280;3316;44.118;27.258;2023-02-13T01:12:03;103285.19;;;0.37;100.00
6565;BME280;3316;44.118;27.258;2023-02-13T01:14:29;103285.75;;;0.44;100.00
6565;BME280;3316;44.118;27.258;2023-02-13T01:16:55;103276.06;;;0.30;100.00
6565;BME280;3316;44.118;27.258;2023-02-13T01:19:20;103257.28;;;-0.02;100.00
6565;BME280;3316;44.118;27.258;2023-02-13T01:21:45;103282.03;;;0.06;100.00
6565;BME280;3316;44.118;27.258;2023-02-13T01:24:11;103282.72;;;0.04;100.00
6565;BME280;3316;44.118;27.258;2023-02-13T01:26:36;103259.75;;;-0.15;100.00
6565;BME280;3316;44.118;27.258;2023-02-13T01:29:02;103277.09;;;-0.03;100.00
6565;BME280;3316;44.118;27.258;2023-02-13T01:31:27;103282.81;;;-0.07;100.00
6565;BME280;3316;44.118;27.258;2023-02-13T01:33:55;103274.47;;;-0.26;100.00
6565;BME280;3316;44.118;27.258;2023-02-13T01:36:22;103277.63;;;-0.18;100.00
6565;BME280;3316;44.118;27.258;2023-02-13T01:38:52;103272.22;;;-0.21;100.00
6565;BME280;3316;44.118;27.258;2023-02-13T01:41:17;103290.47;;;-0.08;100.00
6565;BME280;3316;44.118;27.258;2023-02-13T01:46:18;103279.88;;;-0.11;100.00
6565;BME280;3316;44.118;27.258;2023-02-13T01:48:45;103279.97;;;-0.21;100.00
6565;BME280;3316;44.118;27.258;2023-02-13T01:51:17;103241.78;;;-0.58;100.00
6565;BME280;3316;44.118;27.258;2023-02-13T01:54:09;103274.31;;;-0.39;100.00
6565;BME280;3316;44.118;27.258;2023-02-13T01:56:51;103256.88;;;-0.53;100.00
6565;BME280;3316;44.118;27.258;2023-02-13T01:59:23;103258.91;;;-0.49;100.00
6565;BME280;3316;44.118;27.258;2023-02-13T02:01:51;103273.53;;;-0.49;100.00
6565;BME280;3316;44.118;27.258;2023-02-13T02:04:26;103266.44;;;-0.52;100.00
6565;BME280;3316;44.118;27.258;2023-02-13T02:07:02;103272.97;;;-0.45;100.00
6565;BME280;3316;44.118;27.258;2023-02-13T02:09:34;103275.56;;;-0.45;100.00
6565;BME280;3316;44.118;27.258;2023-02-13T02:12:10;103278.69;;;-0.49;100.00
6565;BME280;3316;44.118;27.258;2023-02-13T02:14:40;103284.72;;;-0.60;100.00
6565;BME280;3316;44.118;27.258;2023-02-13T02:17:06;103270.22;;;-0.92;100.00
6565;BME280;3316;44.118;27.258;2023-02-13T02:19:48;103281.25;;;-0.94;100.00
6565;BME280;3316;44.118;27.258;2023-02-13T02:52:41;103277.03;;;-1.25;100.00
6565;BME280;3316;44.118;27.258;2023-02-13T02:55:21;103274.94;;;-1.41;100.00
6565;BME280;3316;44.118;27.258;2023-02-13T02:58:01;103276.66;;;-1.30;100.00
6565;BME280;3316;44.118;27.258;2023-02-13T03:00:47;103277.84;;;-1.36;100.00
6565;BME280;3316;44.118;27.258;2023-02-13T03:03:33;103263.13;;;-1.59;100.00
6565;BME280;3316;44.118;27.258;2023-02-13T03:06:23;103289.41;;;-1.21;100.00
6565;BME280;3316;44.118;27.258;2023-02-13T03:08:57;103283.72;;;-1.17;100.00
6565;BME280;3316;44.118;27.258;2023-02-13T03:11:47;103278.19;;;-1.53;100.00
6565;BME280;3316;44.118;27.258;2023-02-13T03:14:32;103273.88;;;-1.64;100.00
6565;BME280;3316;44.118;27.258;2023-02-13T03:16:58;103265.38;;;-1.73;100.00
6565;BME280;3316;44.118;27.258;2023-02-13T03:23:10;103282.31;;;-1.45;100.00
6565;BME280;3316;44.118;27.258;2023-02-13T03:28:40;103276.50;;;-1.85;100.00
6565;BME280;3316;44.118;27.258;2023-02-13T03:31:33;103288.50;;;-1.85;100.00
6565;BME280;3316;44.118;27.258;2023-02-13T03:34:04;103275.09;;;-1.91;100.00
6565;BME280;3316;44.118;27.258;2023-02-13T03:42:22;103284.06;;;-1.66;100.00
6565;BME280;3316;44.118;27.258;2023-02-13T03:45:03;103284.19;;;-1.64;100.00
6565;BME280;3316;44.118;27.258;2023-02-13T03:47:54;103289.00;;;-1.79;100.00
6565;BME280;3316;44.118;27.258;2023-02-13T03:50:22;103279.59;;;-1.78;100.00
6565;BME280;3316;44.118;27.258;2023-02-13T03:52:53;103295.47;;;-1.84;100.00
6565;BME280;3316;44.118;27.258;2023-02-13T03:55:25;103288.38;;;-1.87;100.00
6565;BME280;3316;44.118;27.258;2023-02-13T03:58:21;103295.88;;;-1.90;100.00
6565;BME280;3316;44.118;27.258;2023-02-13T04:01:08;103273.34;;;-2.02;100.00
6565;BME280;3316;44.118;27.258;2023-02-13T04:03:49;103287.44;;;-1.77;100.00
6565;BME280;3316;44.118;27.258;2023-02-13T04:06:19;103285.25;;;-1.72;100.00
6565;BME280;3316;44.118;27.258;2023-02-13T04:08:46;103287.19;;;-1.70;100.00
6565;BME280;3316;44.118;27.258;2023-02-13T04:11:25;103284.59;;;-1.70;100.00
6565;BME280;3316;44.118;27.258;2023-02-13T04:14:00;103225.59;;;-1.97;100.00
6565;BME280;3316;44.118;27.258;2023-02-13T04:16:41;103272.22;;;-1.74;100.00
6565;BME280;3316;44.118;27.258;2023-02-13T04:19:07;103272.47;;;-1.71;100.00
6565;BME280;3316;44.118;27.258;2023-02-13T04:21:36;103275.81;;;-1.62;100.00
6565;BME280;3316;44.118;27.258;2023-02-13T04:24:02;103278.16;;;-1.75;100.00
6565;BME280;3316;44.118;27.258;2023-02-13T04:26:34;103279.81;;;-1.75;100.00
6565;BME280;3316;44.118;27.258;2023-02-13T04:29:00;103273.78;;;-1.76;100.00
6565;BME280;3316;44.118;27.258;2023-02-13T04:31:26;103272.38;;;-1.83;100.00
6565;BME280;3316;44.118;27.258;2023-02-13T04:33:51;103262.69;;;-1.85;100.00
6565;BME280;3316;44.118;27.258;2023-02-13T04:36:16;103277.31;;;-1.86;100.00
6565;BME280;3316;44.118;27.258;2023-02-13T04:38:42;103281.06;;;-1.92;100.00
6565;BME280;3316;44.118;27.258;2023-02-13T04:41:09;103291.88;;;-1.86;100.00
6565;BME280;3316;44.118;27.258;2023-02-13T04:43:35;103282.72;;;-1.93;100.00
6565;BME280;3316;44.118;27.258;2023-02-13T04:46:00;103272.94;;;-2.07;100.00
6565;BME280;3316;44.118;27.258;2023-02-13T04:48:26;103265.38;;;-2.15;100.00
6565;BME280;3316;44.118;27.258;2023-02-13T04:50:51;103271.91;;;-2.09;100.00
6565;BME280;3316;44.118;27.258;2023-02-13T04:53:16;103279.53;;;-2.10;100.00
6565;BME280;3316;44.118;27.258;2023-02-13T04:55:42;103264.44;;;-2.06;100.00
6565;BME280;3316;44.118;27.258;2023-02-13T04:58:07;103279.41;;;-2.02;100.00
6565;BME280;3316;44.118;27.258;2023-02-13T05:00:33;103272.09;;;-2.27;100.00
6565;BME280;3316;44.118;27.258;2023-02-13T05:03:09;103284.22;;;-2.26;100.00
6565;BME280;3316;44.118;27.258;2023-02-13T05:05:36;103276.84;;;-2.22;100.00
6565;BME280;3316;44.118;27.258;2023-02-13T05:08:01;103275.06;;;-2.33;100.00
6565;BME280;3316;44.118;27.258;2023-02-13T05:10:27;103285.50;;;-2.31;100.00
6565;BME280;3316;44.118;27.258;2023-02-13T05:12:53;103293.13;;;-2.33;100.00
6565;BME280;3316;44.118;27.258;2023-02-13T05:15:18;103265.28;;;-2.57;100.00
6565;BME280;3316;44.118;27.258;2023-02-13T05:17:44;103278.56;;;-2.42;100.00
6565;BME280;3316;44.118;27.258;2023-02-13T05:20:11;103309.34;;;-2.24;100.00
6565;BME280;3316;44.118;27.258;2023-02-13T05:22:37;103304.31;;;-2.12;100.00
6565;BME280;3316;44.118;27.258;2023-02-13T05:25:26;103302.34;;;-2.05;100.00
6565;BME280;3316;44.118;27.258;2023-02-13T05:27:51;103292.72;;;-2.17;100.00
6565;BME280;3316;44.118;27.258;2023-02-13T05:30:17;103288.81;;;-2.02;100.00
6565;BME280;3316;44.118;27.258;2023-02-13T05:32:42;103303.66;;;-2.00;100.00
6565;BME280;3316;44.118;27.258;2023-02-13T05:35:08;103321.72;;;-2.00;100.00
6565;BME280;3316;44.118;27.258;2023-02-13T05:37:33;103314.34;;;-1.95;100.00
6565;BME280;3316;44.118;27.258;2023-02-13T05:39:58;103318.06;;;-1.50;100.00
6565;BME280;3316;44.118;27.258;2023-02-13T05:42:24;103328.91;;;-0.24;100.00
6565;BME280;3316;44.118;27.258;2023-02-13T05:44:49;103323.06;;;0.82;100.00
6565;BME280;3316;44.118;27.258;2023-02-13T05:47:15;103322.13;;;1.79;100.00
6565;BME280;3316;44.118;27.258;2023-02-13T05:49:40;103318.94;;;2.88;100.00
6565;BME280;3316;44.118;27.258;2023-02-13T05:52:05;103299.50;;;3.66;95.04
6565;BME280;3316;44.118;27.258;2023-02-13T05:54:31;103330.81;;;4.69;83.37
6565;BME280;3316;44.118;27.258;2023-02-13T05:56:56;103331.00;;;5.35;75.82
6565;BME280;3316;44.118;27.258;2023-02-13T05:59:22;103335.50;;;6.72;70.94
6565;BME280;3316;44.118;27.258;2023-02-13T06:01:47;103341.59;;;7.84;61.90
6565;BME280;3316;44.118;27.258;2023-02-13T06:04:13;103341.44;;;8.40;56.69
6565;BME280;3316;44.118;27.258;2023-02-13T06:06:38;103350.69;;;9.40;52.28
6565;BME280;3316;44.118;27.258;2023-02-13T06:09:04;103346.41;;;10.14;49.66
6565;BME280;3316;44.118;27.258;2023-02-13T06:11:29;103349.88;;;10.65;47.37
6565;BME280;3316;44.118;27.258;2023-02-13T06:13:55;103351.91;;;11.28;45.51
6565;BME280;3316;44.118;27.258;2023-02-13T06:16:20;103296.38;;;10.66;44.31
6565;BME280;3316;44.118;27.258;2023-02-13T06:18:46;103344.78;;;10.43;44.46
6565;BME280;3316;44.118;27.258;2023-02-13T06:21:12;103341.69;;;10.29;44.75
6565;BME280;3316;44.118;27.258;2023-02-13T06:23:37;103354.56;;;10.47;44.17
6565;BME280;3316;44.118;27.258;2023-02-13T06:26:05;103349.09;;;10.67;43.63
6565;BME280;3316;44.118;27.258;2023-02-13T06:28:31;103352.50;;;11.20;43.21
6565;BME280;3316;44.118;27.258;2023-02-13T06:30:56;103345.69;;;12.18;41.77
6565;BME280;3316;44.118;27.258;2023-02-13T06:33:22;103343.94;;;12.89;40.79
6565;BME280;3316;44.118;27.258;2023-02-13T06:35:47;103338.66;;;13.26;39.23
6565;BME280;3316;44.118;27.258;2023-02-13T06:38:13;103347.94;;;13.48;38.44
6565;BME280;3316;44.118;27.258;2023-02-13T06:40:38;103334.28;;;12.19;40.17
6565;BME280;3316;44.118;27.258;2023-02-13T06:43:04;103355.25;;;11.82;40.35
6565;BME280;3316;44.118;27.258;2023-02-13T06:45:29;103343.13;;;11.89;40.39
6565;BME280;3316;44.118;27.258;2023-02-13T06:47:55;103335.22;;;12.21;41.28
6565;BME280;3316;44.118;27.258;2023-02-13T06:50:20;103347.47;;;12.19;40.54
6565;BME280;3316;44.118;27.258;2023-02-13T06:52:47;103346.75;;;11.62;41.83
6565;BME280;3316;44.118;27.258;2023-02-13T06:55:13;103349.63;;;11.12;42.65
6565;BME280;3316;44.118;27.258;2023-02-13T06:57:40;103356.50;;;10.02;43.98
6565;BME280;3316;44.118;27.258;2023-02-13T07:00:06;103352.28;;;9.36;46.35
6565;BME280;3316;44.118;27.258;2023-02-13T07:02:31;103367.78;;;9.07;46.95
6565;BME280;3316;44.118;27.258;2023-02-13T07:04:57;103355.81;;;9.37;46.59
6565;BME280;3316;44.118;27.258;2023-02-13T07:07:23;103370.34;;;8.83;48.23
6565;BME280;3316;44.118;27.258;2023-02-13T07:09:49;103354.94;;;8.29;49.97
6565;BME280;3316;44.118;27.258;2023-02-13T07:12:14;103305.19;;;7.14;53.39
6565;BME280;3316;44.118;27.258;2023-02-13T07:14:40;103351.03;;;6.87;55.83
6565;BME280;3316;44.118;27.258;2023-02-13T07:17:05;103345.44;;;7.16;56.33
6565;BME280;3316;44.118;27.258;2023-02-13T07:19:31;103332.66;;;7.22;56.45
6565;BME280;3316;44.118;27.258;2023-02-13T07:21:57;103326.84;;;7.10;56.91
6565;BME280;3316;44.118;27.258;2023-02-13T07:24:22;103332.00;;;6.72;58.90
6565;BME280;3316;44.118;27.258;2023-02-13T07:26:47;103335.50;;;6.90;59.08
6565;BME280;3316;44.118;27.258;2023-02-13T07:29:13;103339.69;;;7.23;58.26
6565;BME280;3316;44.118;27.258;2023-02-13T07:31:38;103319.13;;;7.51;57.72
6565;BME280;3316;44.118;27.258;2023-02-13T07:34:04;103305.75;;;8.04;55.83
6565;BME280;3316;44.118;27.258;2023-02-13T07:36:29;103321.16;;;8.36;54.92
6565;BME280;3316;44.118;27.258;2023-02-13T07:38:55;103309.22;;;8.03;55.65
6565;BME280;3316;44.118;27.258;2023-02-13T07:41:20;103311.69;;;7.79;55.78
6565;BME280;3316;44.118;27.258;2023-02-13T07:43:45;103303.38;;;7.11;58.69
6565;BME280;3316;44.118;27.258;2023-02-13T07:46:11;103275.34;;;7.68;58.12
6565;BME280;3316;44.118;27.258;2023-02-13T07:48:36;103282.88;;;8.41;55.76
6565;BME280;3316;44.118;27.258;2023-02-13T07:51:03;103295.16;;;8.42;55.08
6565;BME280;3316;44.118;27.258;2023-02-13T07:53:30;103297.25;;;7.89;56.25
6565;BME280;3316;44.118;27.258;2023-02-13T07:55:55;103295.19;;;7.82;57.02
6565;BME280;3316;44.118;27.258;2023-02-13T07:58:21;103288.56;;;8.52;56.80
6565;BME280;3316;44.118;27.258;2023-02-13T08:00:47;103287.81;;;10.73;50.72
6565;BME280;3316;44.118;27.258;2023-02-13T08:03:12;103283.16;;;12.50;46.81
6565;BME280;3316;44.118;27.258;2023-02-13T08:05:38;103289.53;;;12.98;44.61
6565;BME280;3316;44.118;27.258;2023-02-13T08:08:05;103286.44;;;14.07;42.21
6565;BME280;3316;44.118;27.258;2023-02-13T08:10:30;103293.16;;;15.60;39.99
6565;BME280;3316;44.118;27.258;2023-02-13T08:13:19;103286.66;;;16.18;37.62
6565;BME280;3316;44.118;27.258;2023-02-13T08:15:44;103269.06;;;16.35;37.11
6565;BME280;3316;44.118;27.258;2023-02-13T08:18:11;103281.81;;;16.77;36.52
6565;BME280;3316;44.118;27.258;2023-02-13T08:20:36;103274.81;;;16.94;35.68
6565;BME280;3316;44.118;27.258;2023-02-13T08:23:08;103293.53;;;15.95;35.72
6565;BME280;3316;44.118;27.258;2023-02-13T08:25:33;103277.22;;;14.91;37.30
6565;BME280;3316;44.118;27.258;2023-02-13T08:28:00;103278.84;;;15.48;36.88
6565;BME280;3316;44.118;27.258;2023-02-13T08:30:26;103274.47;;;15.53;37.21
6565;BME280;3316;44.118;27.258;2023-02-13T08:32:53;103276.03;;;15.36;36.68
6565;BME280;3316;44.118;27.258;2023-02-13T08:35:18;103279.38;;;14.57;36.92
6565;BME280;3316;44.118;27.258;2023-02-13T08:37:44;103274.03;;;15.16;36.78
6565;BME280;3316;44.118;27.258;2023-02-13T08:40:09;103264.66;;;15.44;35.24
6565;BME280;3316;44.118;27.258;2023-02-13T08:42:36;103274.16;;;16.08;34.71
6565;BME280;3316;44.118;27.258;2023-02-13T08:45:02;103283.97;;;15.36;35.32
6565;BME280;3316;44.118;27.258;2023-02-13T08:47:27;103271.91;;;15.59;35.71
6565;BME280;3316;44.118;27.258;2023-02-13T08:49:53;103282.91;;;17.12;33.41
6565;BME280;3316;44.118;27.258;2023-02-13T08:52:18;103279.56;;;17.58;32.15
6565;BME280;3316;44.118;27.258;2023-02-13T08:54:44;103273.25;;;17.43;31.65
6565;BME280;3316;44.118;27.258;2023-02-13T08:57:09;103276.72;;;17.18;32.63
6565;BME280;3316;44.118;27.258;2023-02-13T08:59:34;103276.00;;;17.65;32.31
6565;BME280;3316;44.118;27.258;2023-02-13T09:02:00;103268.09;;;18.09;31.27
6565;BME280;3316;44.118;27.258;2023-02-13T09:04:25;103261.69;;;19.19;30.64
6565;BME280;3316;44.118;27.258;2023-02-13T09:06:52;103280.06;;;19.85;28.68
6565;BME280;3316;44.118;27.258;2023-02-13T09:09:18;103273.91;;;19.71;29.02
6565;BME280;3316;44.118;27.258;2023-02-13T09:11:43;103290.16;;;20.59;28.01
6565;BME280;3316;44.118;27.258;2023-02-13T09:14:09;103290.06;;;21.47;27.36
6565;BME280;3316;44.118;27.258;2023-02-13T09:16:34;103262.38;;;22.07;26.10
6565;BME280;3316;44.118;27.258;2023-02-13T09:19:00;103283.56;;;21.62;25.98
6565;BME280;3316;44.118;27.258;2023-02-13T09:21:25;103254.31;;;20.74;27.03
6565;BME280;3316;44.118;27.258;2023-02-13T09:23:51;103279.63;;;21.24;26.64
6565;BME280;3316;44.118;27.258;2023-02-13T09:26:18;103278.22;;;20.90;26.88
6565;BME280;3316;44.118;27.258;2023-02-13T09:28:44;103271.41;;;22.02;25.95
6565;BME280;3316;44.118;27.258;2023-02-13T09:31:11;103268.66;;;22.58;25.42
6565;BME280;3316;44.118;27.258;2023-02-13T09:33:40;103258.63;;;21.58;25.61
6565;BME280;3316;44.118;27.258;2023-02-13T09:36:07;103259.00;;;21.93;25.26
6565;BME280;3316;44.118;27.258;2023-02-13T09:38:33;103245.59;;;22.45;25.21
6565;BME280;3316;44.118;27.258;2023-02-13T09:41:15;103232.97;;;22.50;24.69
6565;BME280;3316;44.118;27.258;2023-02-13T09:43:56;103231.22;;;21.38;25.51
6565;BME280;3316;44.118;27.258;2023-02-13T09:46:35;103225.09;;;20.56;26.45
6565;BME280;3316;44.118;27.258;2023-02-13T09:49:14;103228.31;;;20.86;26.58
6565;BME280;3316;44.118;27.258;2023-02-13T09:51:42;103226.41;;;21.63;25.83
6565;BME280;3316;44.118;27.258;2023-02-13T09:54:14;103207.66;;;21.61;25.31
6565;BME280;3316;44.118;27.258;2023-02-13T09:57:41;103213.03;;;22.18;24.66
6565;BME280;3316;44.118;27.258;2023-02-13T10:00:20;103213.16;;;22.08;24.88
6565;BME280;3316;44.118;27.258;2023-02-13T10:02:52;103209.13;;;21.24;25.30
6565;BME280;3316;44.118;27.258;2023-02-13T10:05:27;103187.38;;;20.78;25.96
6565;BME280;3316;44.118;27.258;2023-02-13T10:08:20;103190.47;;;21.15;25.34
6565;BME280;3316;44.118;27.258;2023-02-13T10:11:17;103191.66;;;20.91;25.85
6565;BME280;3316;44.118;27.258;2023-02-13T10:14:18;103180.59;;;20.47;26.49
6565;BME280;3316;44.118;27.258;2023-02-13T10:17:15;103178.91;;;20.37;26.52
6565;BME280;3316;44.118;27.258;2023-02-13T10:19:49;103171.34;;;19.89;27.07
6565;BME280;3316;44.118;27.258;2023-02-13T10:22:32;103170.59;;;19.72;28.00
6565;BME280;3316;44.118;27.258;2023-02-13T10:25:00;103168.03;;;19.60;27.13
6565;BME280;3316;44.118;27.258;2023-02-13T10:27:34;103163.22;;;18.52;27.99
6565;BME280;3316;44.118;27.258;2023-02-13T10:35:36;103142.47;;;16.45;31.07
6565;BME280;3316;44.118;27.258;2023-02-13T10:38:15;103111.25;;;15.07;32.53
6565;BME280;3316;44.118;27.258;2023-02-13T10:40:50;103128.69;;;14.21;34.10
6565;BME280;3316;44.118;27.258;2023-02-13T10:43:20;103137.25;;;13.51;35.83
6565;BME280;3316;44.118;27.258;2023-02-13T10:48:55;103116.53;;;12.41;36.70
6565;BME280;3316;44.118;27.258;2023-02-13T10:51:32;103113.25;;;12.11;38.22
6565;BME280;3316;44.118;27.258;2023-02-13T10:54:32;103118.28;;;12.02;38.83
6565;BME280;3316;44.118;27.258;2023-02-13T11:00:02;103119.28;;;11.04;40.28
6565;BME280;3316;44.118;27.258;2023-02-13T11:02:30;103105.69;;;10.89;40.80
6565;BME280;3316;44.118;27.258;2023-02-13T11:05:22;103098.00;;;10.97;41.17
6565;BME280;3316;44.118;27.258;2023-02-13T11:07:49;103097.81;;;10.91;41.90
6565;BME280;3316;44.118;27.258;2023-02-13T11:10:25;103075.50;;;10.45;42.49
6565;BME280;3316;44.118;27.258;2023-02-13T11:12:52;103095.31;;;10.64;42.40
6565;BME280;3316;44.118;27.258;2023-02-13T11:15:29;103096.72;;;10.83;42.20
6565;BME280;3316;44.118;27.258;2023-02-13T11:18:03;103067.47;;;10.72;43.20
6565;BME280;3316;44.118;27.258;2023-02-13T11:20:40;103095.97;;;10.87;43.03
6565;BME280;3316;44.118;27.258;2023-02-13T11:25:58;103086.50;;;10.93;42.55
6565;BME280;3316;44.118;27.258;2023-02-13T11:28:24;103063.47;;;10.86;42.22
6565;BME280;3316;44.118;27.258;2023-02-13T11:30:51;103075.25;;;10.69;43.09
6565;BME280;3316;44.118;27.258;2023-02-13T11:33:21;103065.66;;;10.40;42.89
6565;BME280;3316;44.118;27.258;2023-02-13T11:35:47;103067.84;;;10.25;43.63
6565;BME280;3316;44.118;27.258;2023-02-13T11:40:44;103061.75;;;9.99;43.86
6565;BME280;3316;44.118;27.258;2023-02-13T11:43:28;103050.19;;;9.66;45.33
6565;BME280;3316;44.118;27.258;2023-02-13T11:46:06;103046.63;;;9.64;45.21
6565;BME280;3316;44.118;27.258;2023-02-13T11:48:32;103032.03;;;9.73;44.87
6565;BME280;3316;44.118;27.258;2023-02-13T11:50:58;103031.16;;;9.46;45.67
6565;BME280;3316;44.118;27.258;2023-02-13T11:53:28;103025.16;;;9.50;45.64
6565;BME280;3316;44.118;27.258;2023-02-13T11:56:06;103011.50;;;9.62;45.74
6565;BME280;3316;44.118;27.258;2023-02-13T11:58:32;103025.13;;;9.49;45.84
6565;BME280;3316;44.118;27.258;2023-02-13T12:01:22;103015.31;;;9.71;45.82
6565;BME280;3316;44.118;27.258;2023-02-13T12:04:05;103015.63;;;9.80;46.26
6565;BME280;3316;44.118;27.258;2023-02-13T12:06:32;103014.53;;;9.74;46.08
6565;BME280;3316;44.118;27.258;2023-02-13T12:09:11;102993.34;;;9.98;45.44
6565;BME280;3316;44.118;27.258;2023-02-13T12:11:44;103000.00;;;10.15;45.02
6565;BME280;3316;44.118;27.258;2023-02-13T12:14:17;103002.06;;;10.25;44.76
6565;BME280;3316;44.118;27.258;2023-02-13T12:16:50;102996.63;;;10.19;44.59
6565;BME280;3316;44.118;27.258;2023-02-13T12:19:34;102981.69;;;9.89;45.72
6565;BME280;3316;44.118;27.258;2023-02-13T12:27:47;102982.03;;;9.72;45.73
6565;BME280;3316;44.118;27.258;2023-02-13T12:30:39;102978.28;;;9.64;46.24
6565;BME280;3316;44.118;27.258;2023-02-13T12:41:34;102960.97;;;9.70;45.76
6565;BME280;3316;44.118;27.258;2023-02-13T12:44:22;102964.53;;;9.72;46.65
6565;BME280;3316;44.118;27.258;2023-02-13T12:47:39;102971.44;;;9.69;46.00
6565;BME280;3316;44.118;27.258;2023-02-13T12:52:44;102961.84;;;9.43;47.10
6565;BME280;3316;44.118;27.258;2023-02-13T12:55:21;102958.66;;;9.53;47.25
6565;BME280;3316;44.118;27.258;2023-02-13T12:58:24;102957.56;;;9.46;47.80
6565;BME280;3316;44.118;27.258;2023-02-13T13:28:24;102930.94;;;9.08;48.78
6565;BME280;3316;44.118;27.258;2023-02-13T13:30:51;102926.78;;;9.14;48.92
6565;BME280;3316;44.118;27.258;2023-02-13T13:33:22;102919.59;;;9.09;49.49
6565;BME280;3316;44.118;27.258;2023-02-13T13:36:19;102918.75;;;9.10;49.99
6565;BME280;3316;44.118;27.258;2023-02-13T13:38:59;102916.03;;;9.07;49.80
6565;BME280;3316;44.118;27.258;2023-02-13T13:44:21;102902.94;;;9.08;50.19
6565;BME280;3316;44.118;27.258;2023-02-13T13:49:52;102899.25;;;9.03;50.81
6565;BME280;3316;44.118;27.258;2023-02-13T13:52:22;102898.91;;;8.91;49.84
6565;BME280;3316;44.118;27.258;2023-02-13T13:54:49;102902.81;;;8.77;51.07
6565;BME280;3316;44.118;27.258;2023-02-13T13:57:25;102899.44;;;8.81;50.81
6565;BME280;3316;44.118;27.258;2023-02-13T13:59:54;102888.69;;;8.73;50.40
6565;BME280;3316;44.118;27.258;2023-02-13T14:05:02;102885.63;;;8.60;51.04
6565;BME280;3316;44.118;27.258;2023-02-13T14:07:36;102887.66;;;8.70;51.42
6565;BME280;3316;44.118;27.258;2023-02-13T14:25:32;102868.84;;;8.56;53.33
6565;BME280;3316;44.118;27.258;2023-02-13T14:28:02;102869.31;;;8.45;54.48
6565;BME280;3316;44.118;27.258;2023-02-13T14:30:34;102869.03;;;8.36;55.28
6565;BME280;3316;44.118;27.258;2023-02-13T14:33:04;102859.28;;;8.32;53.26
6565;BME280;3316;44.118;27.258;2023-02-13T14:35:36;102851.41;;;8.32;54.34
6565;BME280;3316;44.118;27.258;2023-02-13T14:38:06;102859.38;;;8.35;53.73
6565;BME280;3316;44.118;27.258;2023-02-13T14:40:48;102849.00;;;8.14;53.81
6565;BME280;3316;44.118;27.258;2023-02-13T14:46:23;102875.00;;;8.32;53.31
6565;BME280;3316;44.118;27.258;2023-02-13T14:48:57;102871.75;;;8.39;53.48
6565;BME280;3316;44.118;27.258;2023-02-13T14:51:47;102849.47;;;8.02;54.74
6565;BME280;3316;44.118;27.258;2023-02-13T14:54:24;102862.06;;;8.13;54.64
6565;BME280;3316;44.118;27.258;2023-02-13T14:56:52;102850.94;;;8.20;55.25
6565;BME280;3316;44.118;27.258;2023-02-13T14:59:23;102855.69;;;8.06;55.58
6565;BME280;3316;44.118;27.258;2023-02-13T15:01:52;102862.41;;;7.98;56.94
6565;BME280;3316;44.118;27.258;2023-02-13T15:04:29;102856.94;;;7.92;57.88
6565;BME280;3316;44.118;27.258;2023-02-13T15:06:59;102807.47;;;7.52;58.54
6565;BME280;3316;44.118;27.258;2023-02-13T15:09:31;102865.47;;;7.86;59.75
6565;BME280;3316;44.118;27.258;2023-02-13T15:12:00;102845.69;;;7.71;61.08
6565;BME280;3316;44.118;27.258;2023-02-13T15:14:33;102860.47;;;7.69;62.64
6565;BME280;3316;44.118;27.258;2023-02-13T15:17:03;102858.19;;;7.54;64.15
6565;BME280;3316;44.118;27.258;2023-02-13T15:19:31;102860.63;;;7.50;64.13
6565;BME280;3316;44.118;27.258;2023-02-13T15:22:00;102854.16;;;7.40;65.55
6565;BME280;3316;44.118;27.258;2023-02-13T15:24:34;102857.47;;;7.36;65.89
6565;BME280;3316;44.118;27.258;2023-02-13T15:27:03;102854.44;;;7.26;67.96
6565;BME280;3316;44.118;27.258;2023-02-13T15:29:30;102842.03;;;6.98;70.42
6565;BME280;3316;44.118;27.258;2023-02-13T15:31:56;102838.38;;;6.94;72.00